KDMA/DMA METAR and TAF weather

Enter ICAO airport designator
Station Type Date Time Source
KDMA METAR 2019/12/10 03:03 UTC NOAA

KDMA 100303Z AUTO 24003KT 10SM SCT024 OVC037 11/09 A3003 RMK AO2 SLP155 $


Station Type Date Time Source
KDMA Decoded METAR 2019/12/10 03:03 UTC NOAA

Davis-Monthan Air Force Base, AZ, United States (KDMA) 32-10N 110-53W
Dec 09, 2019 - 10:03 PM EST / 2019.12.10 0303 UTC
Wind: from the WSW (240 degrees) at 3 MPH (3 KT):0
Visibility: 10 mile(s):0
Sky conditions: overcast
Temperature: 51 F (11 C)
Dew Point: 48 F (9 C)
Relative Humidity: 87%
Pressure (altimeter): 30.03 in. Hg (1016 hPa)
ob: KDMA 100303Z AUTO 24003KT 10SM SCT024 OVC037 11/09 A3003 RMK AO2 SLP155
cycle: 3

Station Type Date Time Source
KDMA TAF 2019/12/09 22:08 UTC NOAA

TAF KDMA 092204Z 0922/1104 VRB06KT 9999 VCSH FEW030 BKN050 610508 QNH2992INS
TEMPO 0922/0924 9000 -SHRA BKN030
BECMG 0923/0924 VRB06KT 9999 NSW FEW035 BKN040 610505 QNH2997INS
BECMG 1005/1006 13007KT 9999 BKN050 610602 QNH3006INS
BECMG 1014/1015 13007KT 9999 FEW060 QNH3015INS TX17/1022Z TN07/1014Z

Example: see airport list